sensor_id;sensor_type;location;lat;lon;timestamp;pressure;altitude;pressure_sealevel;temperature;humidity
41102;BME280;26845;50.190;19.178;2023-08-06T00:00:28;97358.15;;;19.30;100.00
41102;BME280;26845;50.190;19.178;2023-08-06T00:03:33;97361.84;;;19.32;100.00
41102;BME280;26845;50.190;19.178;2023-08-06T00:06:19;97348.09;;;19.31;100.00
41102;BME280;26845;50.190;19.178;2023-08-06T00:09:07;97322.90;;;19.30;100.00
41102;BME280;26845;50.190;19.178;2023-08-06T00:12:13;97308.96;;;19.31;100.00
41102;BME280;26845;50.190;19.178;2023-08-06T00:15:18;97293.09;;;19.35;100.00
41102;BME280;26845;50.190;19.178;2023-08-06T00:18:12;97287.12;;;19.38;100.00
41102;BME280;26845;50.190;19.178;2023-08-06T00:20:57;97263.69;;;19.40;100.00
41102;BME280;26845;50.190;19.178;2023-08-06T00:24:02;97241.01;;;19.38;100.00
41102;BME280;26845;50.190;19.178;2023-08-06T00:26:49;97215.19;;;19.36;100.00
41102;BME280;26845;50.190;19.178;2023-08-06T00:29:36;97180.20;;;19.33;100.00
41102;BME280;26845;50.190;19.178;2023-08-06T00:32:41;97198.43;;;19.27;100.00
41102;BME280;26845;50.190;19.178;2023-08-06T00:35:31;97183.47;;;19.15;100.00
41102;BME280;26845;50.190;19.178;2023-08-06T00:38:20;97151.40;;;19.11;100.00
41102;BME280;26845;50.190;19.178;2023-08-06T00:41:25;97160.82;;;19.09;100.00
41102;BME280;26845;50.190;19.178;2023-08-06T00:44:31;97231.85;;;19.09;100.00
41102;BME280;26845;50.190;19.178;2023-08-06T00:47:36;97214.19;;;19.05;100.00
41102;BME280;26845;50.190;19.178;2023-08-06T00:50:41;97181.10;;;19.08;100.00
41102;BME280;26845;50.190;19.178;2023-08-06T00:53:46;97159.66;;;19.04;100.00
41102;BME280;26845;50.190;19.178;2023-08-06T00:56:52;97161.40;;;19.06;100.00
41102;BME280;26845;50.190;19.178;2023-08-06T00:59:57;97169.12;;;19.07;100.00
41102;BME280;26845;50.190;19.178;2023-08-06T01:03:00;97204.80;;;19.14;100.00
41102;BME280;26845;50.190;19.178;2023-08-06T01:06:06;97210.06;;;19.21;100.00
41102;BME280;26845;50.190;19.178;2023-08-06T01:12:18;97204.20;;;19.30;100.00
41102;BME280;26845;50.190;19.178;2023-08-06T01:18:18;97183.91;;;19.31;100.00
41102;BME280;26845;50.190;19.178;2023-08-06T01:21:23;97167.92;;;19.28;100.00
41102;BME280;26845;50.190;19.178;2023-08-06T01:24:28;97151.17;;;19.30;100.00
41102;BME280;26845;50.190;19.178;2023-08-06T01:27:14;97129.23;;;19.35;100.00
41102;BME280;26845;50.190;19.178;2023-08-06T01:30:22;97113.05;;;19.38;100.00
41102;BME280;26845;50.190;19.178;2023-08-06T01:33:23;97104.73;;;19.22;100.00
41102;BME280;26845;50.190;19.178;2023-08-06T01:36:16;97091.95;;;19.10;100.00
41102;BME280;26845;50.190;19.178;2023-08-06T01:39:02;97095.84;;;19.08;100.00
41102;BME280;26845;50.190;19.178;2023-08-06T01:41:49;97110.82;;;19.15;100.00
41102;BME280;26845;50.190;19.178;2023-08-06T01:44:36;97107.30;;;19.21;100.00
41102;BME280;26845;50.190;19.178;2023-08-06T01:47:41;97119.80;;;19.29;100.00
41102;BME280;26845;50.190;19.178;2023-08-06T01:50:47;97124.16;;;19.36;100.00
41102;BME280;26845;50.190;19.178;2023-08-06T01:53:52;97131.20;;;19.41;100.00
41102;BME280;26845;50.190;19.178;2023-08-06T01:56:53;97134.83;;;19.41;100.00
41102;BME280;26845;50.190;19.178;2023-08-06T01:59:59;97136.51;;;19.40;100.00
41102;BME280;26845;50.190;19.178;2023-08-06T02:02:47;97137.80;;;19.40;100.00
41102;BME280;26845;50.190;19.178;2023-08-06T02:05:50;97123.42;;;19.38;100.00
41102;BME280;26845;50.190;19.178;2023-08-06T02:08:55;97117.39;;;19.38;100.00
41102;BME280;26845;50.190;19.178;2023-08-06T02:12:00;97114.30;;;19.41;100.00
41102;BME280;26845;50.190;19.178;2023-08-06T02:14:48;97109.97;;;19.39;100.00
41102;BME280;26845;50.190;19.178;2023-08-06T02:17:53;97104.51;;;19.39;100.00
41102;BME280;26845;50.190;19.178;2023-08-06T02:20:43;97093.86;;;19.40;100.00
41102;BME280;26845;50.190;19.178;2023-08-06T02:23:48;97085.23;;;19.42;100.00
41102;BME280;26845;50.190;19.178;2023-08-06T02:26:53;97089.98;;;19.43;100.00
41102;BME280;26845;50.190;19.178;2023-08-06T02:29:59;97091.56;;;19.44;100.00
41102;BME280;26845;50.190;19.178;2023-08-06T02:33:04;97091.58;;;19.44;100.00
41102;BME280;26845;50.190;19.178;2023-08-06T02:36:09;97084.96;;;19.45;100.00
41102;BME280;26845;50.190;19.178;2023-08-06T02:39:20;97085.60;;;19.45;100.00
41102;BME280;26845;50.190;19.178;2023-08-06T02:42:13;97085.42;;;19.46;100.00
41102;BME280;26845;50.190;19.178;2023-08-06T02:45:19;97075.70;;;19.47;100.00
41102;BME280;26845;50.190;19.178;2023-08-06T02:48:24;97075.55;;;19.46;100.00
41102;BME280;26845;50.190;19.178;2023-08-06T02:51:29;97071.19;;;19.46;100.00
41102;BME280;26845;50.190;19.178;2023-08-06T02:54:35;97073.23;;;19.42;100.00
41102;BME280;26845;50.190;19.178;2023-08-06T02:57:40;97062.52;;;19.37;100.00
41102;BME280;26845;50.190;19.178;2023-08-06T03:00:45;97056.59;;;19.31;100.00
41102;BME280;26845;50.190;19.178;2023-08-06T03:03:51;97059.31;;;19.33;100.00
41102;BME280;26845;50.190;19.178;2023-08-06T03:06:56;97060.30;;;19.32;100.00
41102;BME280;26845;50.190;19.178;2023-08-06T03:09:43;97067.06;;;19.32;100.00
41102;BME280;26845;50.190;19.178;2023-08-06T03:12:49;97065.11;;;19.34;100.00
41102;BME280;26845;50.190;19.178;2023-08-06T03:15:54;97060.85;;;19.33;100.00
41102;BME280;26845;50.190;19.178;2023-08-06T03:18:47;97046.45;;;19.33;100.00
41102;BME280;26845;50.190;19.178;2023-08-06T03:21:48;97039.79;;;19.31;100.00
41102;BME280;26845;50.190;19.178;2023-08-06T03:24:54;97035.81;;;19.19;100.00
41102;BME280;26845;50.190;19.178;2023-08-06T03:27:59;97039.13;;;19.07;100.00
41102;BME280;26845;50.190;19.178;2023-08-06T03:31:04;97039.35;;;19.00;100.00
41102;BME280;26845;50.190;19.178;2023-08-06T03:34:10;97033.95;;;19.01;100.00
41102;BME280;26845;50.190;19.178;2023-08-06T03:37:03;97028.23;;;19.01;100.00
41102;BME280;26845;50.190;19.178;2023-08-06T03:40:08;97023.41;;;19.02;100.00
41102;BME280;26845;50.190;19.178;2023-08-06T03:43:14;97018.54;;;19.06;100.00
41102;BME280;26845;50.190;19.178;2023-08-06T03:46:19;97024.65;;;19.16;100.00
41102;BME280;26845;50.190;19.178;2023-08-06T03:49:25;97014.59;;;19.24;100.00
41102;BME280;26845;50.190;19.178;2023-08-06T03:52:30;97014.83;;;19.32;100.00
41102;BME280;26845;50.190;19.178;2023-08-06T03:55:35;97017.04;;;19.38;100.00
41102;BME280;26845;50.190;19.178;2023-08-06T03:58:41;97015.88;;;19.40;100.00
41102;BME280;26845;50.190;19.178;2023-08-06T04:01:46;97016.16;;;19.43;100.00
41102;BME280;26845;50.190;19.178;2023-08-06T04:04:51;97012.95;;;19.42;100.00
41102;BME280;26845;50.190;19.178;2023-08-06T04:07:57;97007.10;;;19.41;100.00
41102;BME280;26845;50.190;19.178;2023-08-06T04:11:02;97004.44;;;19.26;100.00
41102;BME280;26845;50.190;19.178;2023-08-06T04:14:07;97005.16;;;19.17;100.00
41102;BME280;26845;50.190;19.178;2023-08-06T04:17:12;97015.33;;;19.06;100.00
41102;BME280;26845;50.190;19.178;2023-08-06T04:20:18;97017.09;;;19.07;100.00
41102;BME280;26845;50.190;19.178;2023-08-06T04:23:23;97001.36;;;19.03;100.00
41102;BME280;26845;50.190;19.178;2023-08-06T04:26:13;96999.77;;;18.94;100.00
41102;BME280;26845;50.190;19.178;2023-08-06T04:29:18;96995.75;;;18.93;100.00
41102;BME280;26845;50.190;19.178;2023-08-06T04:32:24;96991.92;;;18.88;100.00
41102;BME280;26845;50.190;19.178;2023-08-06T04:35:29;96986.85;;;18.80;100.00
41102;BME280;26845;50.190;19.178;2023-08-06T04:38:37;96988.95;;;18.79;100.00
41102;BME280;26845;50.190;19.178;2023-08-06T04:41:40;96975.05;;;18.77;100.00
41102;BME280;26845;50.190;19.178;2023-08-06T04:44:45;96981.83;;;18.72;100.00
41102;BME280;26845;50.190;19.178;2023-08-06T04:47:50;96979.23;;;18.77;100.00
41102;BME280;26845;50.190;19.178;2023-08-06T04:50:56;96976.34;;;18.88;100.00
41102;BME280;26845;50.190;19.178;2023-08-06T04:54:01;96978.57;;;18.98;100.00
41102;BME280;26845;50.190;19.178;2023-08-06T04:57:06;96974.25;;;19.04;100.00
41102;BME280;26845;50.190;19.178;2023-08-06T05:00:12;96971.52;;;19.12;100.00
41102;BME280;26845;50.190;19.178;2023-08-06T05:03:17;96964.70;;;19.17;100.00
41102;BME280;26845;50.190;19.178;2023-08-06T05:06:08;96964.20;;;19.20;100.00
41102;BME280;26845;50.190;19.178;2023-08-06T05:09:17;96956.73;;;19.17;100.00
41102;BME280;26845;50.190;19.178;2023-08-06T05:12:19;96952.79;;;19.10;100.00
41102;BME280;26845;50.190;19.178;2023-08-06T05:15:25;96948.81;;;19.05;100.00
41102;BME280;26845;50.190;19.178;2023-08-06T05:18:14;96947.69;;;19.05;100.00
41102;BME280;26845;50.190;19.178;2023-08-06T05:21:19;96944.04;;;19.08;100.00
41102;BME280;26845;50.190;19.178;2023-08-06T05:24:25;96933.73;;;19.10;100.00
41102;BME280;26845;50.190;19.178;2023-08-06T05:27:11;96928.05;;;19.14;100.00
41102;BME280;26845;50.190;19.178;2023-08-06T05:30:16;96921.97;;;19.11;100.00
41102;BME280;26845;50.190;19.178;2023-08-06T05:33:22;96919.91;;;19.01;100.00
41102;BME280;26845;50.190;19.178;2023-08-06T05:36:08;96921.77;;;18.93;100.00
41102;BME280;26845;50.190;19.178;2023-08-06T05:39:17;96920.83;;;18.89;100.00
41102;BME280;26845;50.190;19.178;2023-08-06T05:42:19;96914.60;;;18.93;100.00
41102;BME280;26845;50.190;19.178;2023-08-06T05:45:20;96906.48;;;18.92;100.00
41102;BME280;26845;50.190;19.178;2023-08-06T05:48:26;96896.89;;;18.87;100.00
41102;BME280;26845;50.190;19.178;2023-08-06T05:51:32;96896.80;;;18.87;100.00
41102;BME280;26845;50.190;19.178;2023-08-06T05:54:37;96891.98;;;18.95;100.00
41102;BME280;26845;50.190;19.178;2023-08-06T05:57:42;96891.02;;;19.02;100.00
41102;BME280;26845;50.190;19.178;2023-08-06T06:00:48;96885.66;;;18.94;100.00
41102;BME280;26845;50.190;19.178;2023-08-06T06:03:53;96875.33;;;18.81;100.00
41102;BME280;26845;50.190;19.178;2023-08-06T06:06:58;96871.69;;;18.75;100.00
41102;BME280;26845;50.190;19.178;2023-08-06T06:10:04;96865.98;;;18.71;100.00
41102;BME280;26845;50.190;19.178;2023-08-06T06:13:12;96860.80;;;18.78;100.00
41102;BME280;26845;50.190;19.178;2023-08-06T06:16:14;96849.23;;;18.77;100.00
41102;BME280;26845;50.190;19.178;2023-08-06T06:19:07;96851.78;;;18.70;100.00
41102;BME280;26845;50.190;19.178;2023-08-06T06:21:50;96849.31;;;18.59;100.00
41102;BME280;26845;50.190;19.178;2023-08-06T06:24:55;96846.97;;;18.35;100.00
41102;BME280;26845;50.190;19.178;2023-08-06T06:28:01;96836.77;;;18.08;100.00
41102;BME280;26845;50.190;19.178;2023-08-06T06:31:06;96837.34;;;17.85;100.00
41102;BME280;26845;50.190;19.178;2023-08-06T06:34:11;96844.75;;;17.67;100.00
41102;BME280;26845;50.190;19.178;2023-08-06T06:37:17;96853.75;;;17.50;100.00
41102;BME280;26845;50.190;19.178;2023-08-06T06:40:22;96864.15;;;17.43;100.00
41102;BME280;26845;50.190;19.178;2023-08-06T06:43:34;96871.23;;;17.40;100.00
41102;BME280;26845;50.190;19.178;2023-08-06T06:46:23;96851.18;;;17.38;100.00
41102;BME280;26845;50.190;19.178;2023-08-06T06:49:28;96808.92;;;17.20;100.00
41102;BME280;26845;50.190;19.178;2023-08-06T06:52:33;96811.92;;;16.96;100.00
41102;BME280;26845;50.190;19.178;2023-08-06T06:55:37;96825.83;;;16.91;100.00
41102;BME280;26845;50.190;19.178;2023-08-06T06:58:43;96829.64;;;16.93;100.00
41102;BME280;26845;50.190;19.178;2023-08-06T07:01:44;96825.00;;;16.93;100.00
41102;BME280;26845;50.190;19.178;2023-08-06T07:04:50;96831.04;;;16.83;100.00
41102;BME280;26845;50.190;19.178;2023-08-06T07:07:44;96852.21;;;16.69;100.00
41102;BME280;26845;50.190;19.178;2023-08-06T07:10:49;96868.41;;;16.61;100.00
41102;BME280;26845;50.190;19.178;2023-08-06T07:13:37;96844.86;;;16.60;100.00
41102;BME280;26845;50.190;19.178;2023-08-06T07:16:03;96840.39;;;16.55;100.00
41102;BME280;26845;50.190;19.178;2023-08-06T07:19:08;96873.74;;;16.39;100.00
41102;BME280;26845;50.190;19.178;2023-08-06T07:22:09;96891.92;;;16.31;100.00
41102;BME280;26845;50.190;19.178;2023-08-06T07:25:15;96889.52;;;16.24;100.00
41102;BME280;26845;50.190;19.178;2023-08-06T07:28:20;96869.27;;;16.24;100.00
41102;BME280;26845;50.190;19.178;2023-08-06T07:31:25;96880.40;;;16.32;100.00
41102;BME280;26845;50.190;19.178;2023-08-06T07:34:12;96901.05;;;16.41;100.00
41102;BME280;26845;50.190;19.178;2023-08-06T07:36:57;96915.30;;;16.52;100.00
41102;BME280;26845;50.190;19.178;2023-08-06T07:40:03;96905.60;;;16.59;100.00
41102;BME280;26845;50.190;19.178;2023-08-06T07:43:08;96896.23;;;16.55;100.00
41102;BME280;26845;50.190;19.178;2023-08-06T07:46:13;96902.10;;;16.47;100.00
41102;BME280;26845;50.190;19.178;2023-08-06T07:49:19;96922.36;;;16.36;100.00
41102;BME280;26845;50.190;19.178;2023-08-06T07:52:25;96911.95;;;16.33;100.00
41102;BME280;26845;50.190;19.178;2023-08-06T07:55:30;96890.73;;;16.29;100.00
41102;BME280;26845;50.190;19.178;2023-08-06T07:58:36;96885.44;;;16.20;100.00
41102;BME280;26845;50.190;19.178;2023-08-06T08:01:41;96883.45;;;16.18;100.00
41102;BME280;26845;50.190;19.178;2023-08-06T08:04:31;96879.44;;;16.20;100.00
41102;BME280;26845;50.190;19.178;2023-08-06T08:07:21;96883.59;;;16.14;100.00
41102;BME280;26845;50.190;19.178;2023-08-06T08:10:26;96878.80;;;16.03;100.00
41102;BME280;26845;50.190;19.178;2023-08-06T08:13:31;96878.46;;;15.92;100.00
41102;BME280;26845;50.190;19.178;2023-08-06T08:16:22;96882.14;;;15.89;100.00
41102;BME280;26845;50.190;19.178;2023-08-06T08:19:28;96873.75;;;15.91;100.00
41102;BME280;26845;50.190;19.178;2023-08-06T08:22:14;96869.34;;;15.89;100.00
41102;BME280;26845;50.190;19.178;2023-08-06T08:25:19;96881.59;;;15.88;100.00
41102;BME280;26845;50.190;19.178;2023-08-06T08:28:27;96882.23;;;15.89;100.00
41102;BME280;26845;50.190;19.178;2023-08-06T08:31:33;96885.42;;;15.82;100.00
41102;BME280;26845;50.190;19.178;2023-08-06T08:34:38;96888.92;;;15.77;100.00
41102;BME280;26845;50.190;19.178;2023-08-06T08:37:45;96894.68;;;15.76;100.00
41102;BME280;26845;50.190;19.178;2023-08-06T08:40:32;96892.69;;;15.75;100.00
41102;BME280;26845;50.190;19.178;2023-08-06T08:43:20;96887.00;;;15.77;100.00
41102;BME280;26845;50.190;19.178;2023-08-06T08:46:25;96879.57;;;15.82;100.00
41102;BME280;26845;50.190;19.178;2023-08-06T08:49:30;96882.79;;;15.86;100.00
41102;BME280;26845;50.190;19.178;2023-08-06T08:52:36;96875.82;;;15.87;100.00
41102;BME280;26845;50.190;19.178;2023-08-06T08:55:42;96877.90;;;15.87;100.00
41102;BME280;26845;50.190;19.178;2023-08-06T08:58:47;96873.82;;;15.88;100.00
41102;BME280;26845;50.190;19.178;2023-08-06T09:01:52;96889.83;;;15.86;100.00
41102;BME280;26845;50.190;19.178;2023-08-06T09:04:58;96896.08;;;15.87;100.00
41102;BME280;26845;50.190;19.178;2023-08-06T09:08:04;96890.38;;;15.83;100.00
41102;BME280;26845;50.190;19.178;2023-08-06T09:10:53;96873.88;;;15.73;100.00
41102;BME280;26845;50.190;19.178;2023-08-06T09:13:59;96867.27;;;15.64;100.00
41102;BME280;26845;50.190;19.178;2023-08-06T09:17:04;96863.49;;;15.56;100.00
41102;BME280;26845;50.190;19.178;2023-08-06T09:19:50;96854.63;;;15.55;100.00
41102;BME280;26845;50.190;19.178;2023-08-06T09:22:56;96842.79;;;15.58;100.00
41102;BME280;26845;50.190;19.178;2023-08-06T09:26:01;96855.59;;;15.63;100.00
41102;BME280;26845;50.190;19.178;2023-08-06T09:29:07;96862.61;;;15.72;100.00
41102;BME280;26845;50.190;19.178;2023-08-06T09:32:12;96868.53;;;15.78;100.00
41102;BME280;26845;50.190;19.178;2023-08-06T09:35:18;96876.05;;;15.83;100.00
41102;BME280;26845;50.190;19.178;2023-08-06T09:38:24;96878.45;;;15.85;100.00
41102;BME280;26845;50.190;19.178;2023-08-06T09:41:29;96877.81;;;15.88;100.00
41102;BME280;26845;50.190;19.178;2023-08-06T09:44:34;96870.77;;;15.84;100.00
41102;BME280;26845;50.190;19.178;2023-08-06T09:47:40;96873.40;;;15.79;100.00
41102;BME280;26845;50.190;19.178;2023-08-06T09:50:45;96880.27;;;15.71;100.00
41102;BME280;26845;50.190;19.178;2023-08-06T09:53:51;96889.34;;;15.59;100.00
41102;BME280;26845;50.190;19.178;2023-08-06T09:56:58;96893.56;;;15.53;100.00
41102;BME280;26845;50.190;19.178;2023-08-06T10:00:04;96890.59;;;15.49;100.00
41102;BME280;26845;50.190;19.178;2023-08-06T10:03:10;96891.37;;;15.41;100.00
41102;BME280;26845;50.190;19.178;2023-08-06T10:06:16;96884.57;;;15.39;100.00
41102;BME280;26845;50.190;19.178;2023-08-06T10:09:32;96893.84;;;15.39;100.00
41102;BME280;26845;50.190;19.178;2023-08-06T10:12:40;96897.75;;;15.37;100.00
41102;BME280;26845;50.190;19.178;2023-08-06T10:15:43;96903.66;;;15.33;100.00
41102;BME280;26845;50.190;19.178;2023-08-06T10:18:49;96900.05;;;15.28;100.00
41102;BME280;26845;50.190;19.178;2023-08-06T10:24:58;96908.33;;;15.19;100.00
41102;BME280;26845;50.190;19.178;2023-08-06T10:28:07;96915.19;;;15.14;100.00
41102;BME280;26845;50.190;19.178;2023-08-06T10:31:11;96918.93;;;15.13;100.00
41102;BME280;26845;50.190;19.178;2023-08-06T10:34:17;96915.35;;;15.16;100.00
41102;BME280;26845;50.190;19.178;2023-08-06T10:37:26;96918.26;;;15.24;100.00
41102;BME280;26845;50.190;19.178;2023-08-06T10:40:29;96911.06;;;15.24;100.00
41102;BME280;26845;50.190;19.178;2023-08-06T10:43:35;96909.05;;;15.21;100.00
41102;BME280;26845;50.190;19.178;2023-08-06T10:46:40;96909.21;;;15.21;100.00
41102;BME280;26845;50.190;19.178;2023-08-06T10:49:46;96915.37;;;15.20;100.00
41102;BME280;26845;50.190;19.178;2023-08-06T10:52:51;96922.17;;;15.23;100.00
41102;BME280;26845;50.190;19.178;2023-08-06T10:55:57;96922.11;;;15.26;100.00
41102;BME280;26845;50.190;19.178;2023-08-06T10:59:02;96918.73;;;15.20;100.00
41102;BME280;26845;50.190;19.178;2023-08-06T11:01:52;96911.90;;;15.14;100.00
41102;BME280;26845;50.190;19.178;2023-08-06T11:04:58;96914.29;;;15.10;100.00
41102;BME280;26845;50.190;19.178;2023-08-06T11:08:03;96920.33;;;15.04;100.00
41102;BME280;26845;50.190;19.178;2023-08-06T11:11:10;96919.49;;;14.98;100.00
41102;BME280;26845;50.190;19.178;2023-08-06T11:14:15;96915.64;;;14.94;100.00
41102;BME280;26845;50.190;19.178;2023-08-06T11:17:21;96922.19;;;14.92;100.00
41102;BME280;26845;50.190;19.178;2023-08-06T11:20:26;96918.88;;;14.88;100.00
41102;BME280;26845;50.190;19.178;2023-08-06T11:23:32;96923.66;;;14.85;100.00
41102;BME280;26845;50.190;19.178;2023-08-06T11:26:21;96929.90;;;14.87;100.00
41102;BME280;26845;50.190;19.178;2023-08-06T11:29:24;96936.98;;;14.82;100.00
41102;BME280;26845;50.190;19.178;2023-08-06T11:32:46;96938.31;;;14.76;100.00
41102;BME280;26845;50.190;19.178;2023-08-06T11:35:51;96943.38;;;14.71;100.00
41102;BME280;26845;50.190;19.178;2023-08-06T11:39:00;96943.31;;;14.73;100.00
41102;BME280;26845;50.190;19.178;2023-08-06T11:42:05;96943.65;;;14.75;100.00
41102;BME280;26845;50.190;19.178;2023-08-06T11:45:11;96943.55;;;14.73;100.00
41102;BME280;26845;50.190;19.178;2023-08-06T11:48:17;96937.52;;;14.67;100.00
41102;BME280;26845;50.190;19.178;2023-08-06T11:51:23;96941.61;;;14.68;100.00
41102;BME280;26845;50.190;19.178;2023-08-06T11:54:31;96940.27;;;14.70;100.00
41102;BME280;26845;50.190;19.178;2023-08-06T11:57:37;96942.52;;;14.71;100.00
41102;BME280;26845;50.190;19.178;2023-08-06T12:00:43;96944.75;;;14.71;100.00
41102;BME280;26845;50.190;19.178;2023-08-06T12:03:48;96953.85;;;14.71;100.00
41102;BME280;26845;50.190;19.178;2023-08-06T12:06:54;96962.98;;;14.72;100.00
41102;BME280;26845;50.190;19.178;2023-08-06T12:10:00;96962.23;;;14.71;100.00
41102;BME280;26845;50.190;19.178;2023-08-06T12:13:12;96971.39;;;14.77;100.00
41102;BME280;26845;50.190;19.178;2023-08-06T12:16:18;96976.43;;;14.79;100.00
41102;BME280;26845;50.190;19.178;2023-08-06T12:19:24;96981.09;;;14.79;100.00
41102;BME280;26845;50.190;19.178;2023-08-06T12:22:29;96991.30;;;14.78;100.00
41102;BME280;26845;50.190;19.178;2023-08-06T12:25:48;97000.50;;;14.81;100.00
41102;BME280;26845;50.190;19.178;2023-08-06T12:28:54;97010.88;;;14.79;100.00
41102;BME280;26845;50.190;19.178;2023-08-06T12:32:00;97012.63;;;14.79;100.00
41102;BME280;26845;50.190;19.178;2023-08-06T12:35:06;97011.13;;;14.81;100.00
41102;BME280;26845;50.190;19.178;2023-08-06T12:38:11;97017.12;;;14.81;100.00
41102;BME280;26845;50.190;19.178;2023-08-06T12:41:17;97012.11;;;14.84;100.00
41102;BME280;26845;50.190;19.178;2023-08-06T12:44:23;97013.42;;;14.91;100.00
41102;BME280;26845;50.190;19.178;2023-08-06T12:47:28;97001.80;;;14.95;100.00
41102;BME280;26845;50.190;19.178;2023-08-06T12:50:34;96984.92;;;15.07;100.00
41102;BME280;26845;50.190;19.178;2023-08-06T12:53:40;96994.05;;;15.21;100.00
41102;BME280;26845;50.190;19.178;2023-08-06T12:56:51;96989.77;;;15.29;100.00
41102;BME280;26845;50.190;19.178;2023-08-06T12:59:56;96985.48;;;15.36;100.00
41102;BME280;26845;50.190;19.178;2023-08-06T13:03:06;96992.23;;;15.47;100.00
41102;BME280;26845;50.190;19.178;2023-08-06T13:06:12;96995.98;;;15.57;100.00
41102;BME280;26845;50.190;19.178;2023-08-06T13:09:21;97003.29;;;15.64;100.00
41102;BME280;26845;50.190;19.178;2023-08-06T13:12:26;97009.28;;;15.64;100.00
41102;BME280;26845;50.190;19.178;2023-08-06T13:15:32;97003.52;;;15.65;100.00
41102;BME280;26845;50.190;19.178;2023-08-06T13:18:38;97000.57;;;15.66;100.00
41102;BME280;26845;50.190;19.178;2023-08-06T13:24:55;97018.48;;;15.78;100.00
41102;BME280;26845;50.190;19.178;2023-08-06T13:28:01;97016.79;;;15.97;100.00
41102;BME280;26845;50.190;19.178;2023-08-06T13:31:07;97022.73;;;16.06;100.00
41102;BME280;26845;50.190;19.178;2023-08-06T13:34:12;97022.83;;;16.08;100.00
41102;BME280;26845;50.190;19.178;2023-08-06T13:37:17;97033.56;;;16.15;100.00
41102;BME280;26845;50.190;19.178;2023-08-06T13:40:23;97035.77;;;16.31;100.00
41102;BME280;26845;50.190;19.178;2023-08-06T13:43:29;97036.11;;;16.50;100.00
41102;BME280;26845;50.190;19.178;2023-08-06T13:46:35;97041.02;;;16.55;100.00
41102;BME280;26845;50.190;19.178;2023-08-06T13:49:41;97055.65;;;16.38;100.00
41102;BME280;26845;50.190;19.178;2023-08-06T13:52:46;97053.05;;;16.26;100.00
41102;BME280;26845;50.190;19.178;2023-08-06T13:55:52;97054.09;;;16.25;100.00
41102;BME280;26845;50.190;19.178;2023-08-06T13:58:58;97062.81;;;16.19;100.00
41102;BME280;26845;50.190;19.178;2023-08-06T14:02:03;97069.11;;;16.11;100.00
41102;BME280;26845;50.190;19.178;2023-08-06T14:05:09;97064.15;;;16.11;100.00
41102;BME280;26845;50.190;19.178;2023-08-06T14:08:15;97057.35;;;16.11;100.00
41102;BME280;26845;50.190;19.178;2023-08-06T14:11:20;97056.29;;;16.09;100.00
41102;BME280;26845;50.190;19.178;2023-08-06T14:14:25;97069.75;;;16.09;100.00
41102;BME280;26845;50.190;19.178;2023-08-06T14:17:31;97073.58;;;16.07;100.00
41102;BME280;26845;50.190;19.178;2023-08-06T14:20:36;97068.16;;;16.12;100.00
41102;BME280;26845;50.190;19.178;2023-08-06T14:23:42;97081.45;;;16.12;100.00
41102;BME280;26845;50.190;19.178;2023-08-06T14:26:48;97088.95;;;16.08;100.00
41102;BME280;26845;50.190;19.178;2023-08-06T14:29:53;97089.63;;;15.98;100.00
41102;BME280;26845;50.190;19.178;2023-08-06T14:32:59;97091.59;;;15.88;100.00
41102;BME280;26845;50.190;19.178;2023-08-06T14:36:04;97090.05;;;15.83;100.00
41102;BME280;26845;50.190;19.178;2023-08-06T14:39:10;97087.00;;;15.81;100.00
41102;BME280;26845;50.190;19.178;2023-08-06T14:42:15;97091.55;;;15.78;100.00
41102;BME280;26845;50.190;19.178;2023-08-06T14:45:21;97089.85;;;15.72;100.00
41102;BME280;26845;50.190;19.178;2023-08-06T14:48:27;97097.77;;;15.64;100.00
41102;BME280;26845;50.190;19.178;2023-08-06T14:51:42;97103.67;;;15.62;100.00
41102;BME280;26845;50.190;19.178;2023-08-06T14:54:47;97104.55;;;15.62;100.00
41102;BME280;26845;50.190;19.178;2023-08-06T14:57:53;97105.64;;;15.55;100.00
41102;BME280;26845;50.190;19.178;2023-08-06T15:00:59;97091.85;;;15.50;100.00
41102;BME280;26845;50.190;19.178;2023-08-06T15:04:04;97091.75;;;15.46;100.00
41102;BME280;26845;50.190;19.178;2023-08-06T15:07:10;97096.38;;;15.44;100.00
41102;BME280;26845;50.190;19.178;2023-08-06T15:10:16;97091.05;;;15.40;100.00
41102;BME280;26845;50.190;19.178;2023-08-06T15:13:22;97082.11;;;15.38;100.00
41102;BME280;26845;50.190;19.178;2023-08-06T15:16:28;97085.33;;;15.42;100.00
41102;BME280;26845;50.190;19.178;2023-08-06T15:19:33;97086.33;;;15.47;100.00
41102;BME280;26845;50.190;19.178;2023-08-06T15:22:39;97096.65;;;15.50;100.00
41102;BME280;26845;50.190;19.178;2023-08-06T15:25:45;97099.04;;;15.51;100.00
41102;BME280;26845;50.190;19.178;2023-08-06T15:28:51;97104.01;;;15.49;100.00
41102;BME280;26845;50.190;19.178;2023-08-06T15:31:57;97112.89;;;15.48;100.00
41102;BME280;26845;50.190;19.178;2023-08-06T15:35:02;97124.71;;;15.47;100.00
41102;BME280;26845;50.190;19.178;2023-08-06T15:38:14;97138.04;;;15.44;100.00
41102;BME280;26845;50.190;19.178;2023-08-06T15:41:20;97146.26;;;15.52;100.00
41102;BME280;26845;50.190;19.178;2023-08-06T15:44:25;97160.34;;;15.53;100.00
41102;BME280;26845;50.190;19.178;2023-08-06T15:47:31;97161.20;;;15.51;100.00
41102;BME280;26845;50.190;19.178;2023-08-06T15:50:37;97166.98;;;15.51;100.00
41102;BME280;26845;50.190;19.178;2023-08-06T15:53:42;97173.04;;;15.50;100.00
41102;BME280;26845;50.190;19.178;2023-08-06T15:56:09;97184.08;;;15.50;100.00